createdAt,value
2019-06-01T00:01:23.746Z,4.00
2019-06-01T00:03:51.441Z,3.47
2019-06-01T00:06:19.247Z,3.62
2019-06-01T00:08:47.236Z,4.15
2019-06-01T00:11:15.084Z,4.20
2019-06-01T00:13:43.453Z,4.85
2019-06-01T00:16:11.262Z,4.12
2019-06-01T00:18:39.819Z,4.08
2019-06-01T00:21:07.698Z,4.20
2019-06-01T00:23:35.473Z,4.03
2019-06-01T00:26:03.258Z,4.37
2019-06-01T00:28:30.936Z,3.70
2019-06-01T00:30:58.810Z,3.95
2019-06-01T00:33:26.530Z,4.40
2019-06-01T00:35:54.389Z,4.30
2019-06-01T00:38:22.081Z,4.60
2019-06-01T00:40:49.967Z,4.60
2019-06-01T00:43:18.033Z,3.95
2019-06-01T00:45:46.518Z,4.20
2019-06-01T00:48:14.396Z,4.60
2019-06-01T00:50:43.076Z,4.53
2019-06-01T00:53:10.959Z,4.65
2019-06-01T00:55:38.905Z,4.65
2019-06-01T00:58:06.714Z,4.35
2019-06-01T01:00:43.266Z,4.65
2019-06-01T01:03:04.206Z,4.65
2019-06-01T01:05:32.115Z,5.47
2019-06-01T01:07:59.965Z,5.53
2019-06-01T01:10:27.806Z,5.72
2019-06-01T01:13:23.792Z,4.80
2019-06-01T01:15:53.483Z,5.33
2019-06-01T01:18:21.247Z,5.55
2019-06-01T01:20:50.051Z,5.75
2019-06-01T01:23:17.887Z,5.22
2019-06-01T01:25:46.356Z,5.15
2019-06-01T01:28:14.247Z,4.70
2019-06-01T01:30:41.936Z,5.30
2019-06-01T01:33:10.337Z,4.80
2019-06-01T01:35:38.082Z,5.03
2019-06-01T01:38:05.830Z,4.75
2019-06-01T01:40:33.489Z,4.70
2019-06-01T01:43:01.274Z,4.37
2019-06-01T01:45:28.941Z,5.00
2019-06-01T01:47:57.237Z,4.87
2019-06-01T01:50:27.008Z,4.80
2019-06-01T01:52:54.896Z,5.00
2019-06-01T01:55:22.825Z,5.35
2019-06-01T01:57:51.193Z,5.20
2019-06-01T02:00:40.199Z,4.62
2019-06-01T02:03:10.334Z,4.55
2019-06-01T02:05:38.321Z,4.90
2019-06-01T02:08:07.484Z,4.95
2019-06-01T02:10:35.797Z,4.90
2019-06-01T02:13:04.858Z,5.50
2019-06-01T02:15:32.725Z,5.12
2019-06-01T02:18:02.729Z,4.50
2019-06-01T02:20:31.587Z,5.55
2019-06-01T02:23:00.997Z,5.00
2019-06-01T02:25:30.386Z,4.70
2019-06-01T02:27:59.248Z,5.60
2019-06-01T02:30:27.087Z,5.28
2019-06-01T02:32:56.255Z,5.17
2019-06-01T02:35:24.586Z,4.62
2019-06-01T02:37:52.346Z,4.50
2019-06-01T02:40:20.596Z,5.05
2019-06-01T02:42:48.825Z,5.35
2019-06-01T02:45:17.548Z,5.10
2019-06-01T02:47:46.259Z,4.70
2019-06-01T02:50:14.338Z,5.12
2019-06-01T02:52:42.418Z,5.92
2019-06-01T02:55:15.198Z,4.90
2019-06-01T02:57:43.770Z,4.97
2019-06-01T03:00:12.118Z,4.33
2019-06-01T03:02:41.819Z,5.12
2019-06-01T03:05:10.508Z,5.20
2019-06-01T03:07:41.010Z,4.78
2019-06-01T03:10:11.164Z,4.87
2019-06-01T03:12:43.565Z,5.30
2019-06-01T03:15:12.741Z,5.12
2019-06-01T03:17:47.911Z,4.65
2019-06-01T03:20:17.406Z,5.17
2019-06-01T03:22:50.864Z,5.30
2019-06-01T03:25:20.206Z,5.67
2019-06-01T03:27:51.126Z,4.65
2019-06-01T03:30:37.297Z,4.78
2019-06-01T03:33:08.611Z,5.20
2019-06-01T03:35:36.458Z,4.70
2019-06-01T03:38:04.963Z,4.62
2019-06-01T03:40:33.060Z,5.10
2019-06-01T03:43:00.726Z,4.65
2019-06-01T03:45:28.881Z,4.75
2019-06-01T03:47:56.563Z,5.20
2019-06-01T03:50:24.309Z,4.80
2019-06-01T03:52:52.442Z,4.95
2019-06-01T03:55:20.210Z,5.50
2019-06-01T03:57:48.014Z,5.22
2019-06-01T04:00:15.778Z,5.20
2019-06-01T04:02:43.755Z,5.25
2019-06-01T04:05:11.661Z,4.67
2019-06-01T04:07:39.445Z,5.05
2019-06-01T04:10:07.935Z,5.28
2019-06-01T04:12:36.078Z,4.83
2019-06-01T04:15:10.112Z,5.25
2019-06-01T04:17:34.498Z,4.78
2019-06-01T04:20:02.186Z,5.40
2019-06-01T04:23:12.397Z,4.80
2019-06-01T04:25:40.261Z,5.30
2019-06-01T04:28:12.625Z,5.25
2019-06-01T04:30:40.866Z,4.97
2019-06-01T04:33:08.986Z,4.83
2019-06-01T04:35:36.789Z,5.08
2019-06-01T04:38:05.064Z,5.30
2019-06-01T04:40:33.138Z,5.75
2019-06-01T04:43:00.803Z,4.70
2019-06-01T04:45:28.461Z,5.80
2019-06-01T04:47:56.207Z,6.00
2019-06-01T04:50:24.002Z,5.70
2019-06-01T04:52:51.781Z,5.75
2019-06-01T04:55:19.454Z,6.25
2019-06-01T04:57:47.306Z,5.95
2019-06-01T05:00:25.771Z,5.50
2019-06-01T05:02:45.374Z,5.60
2019-06-01T05:05:13.391Z,5.65
2019-06-01T05:07:41.321Z,5.22
2019-06-01T05:10:09.551Z,5.72
2019-06-01T05:12:37.772Z,5.50
2019-06-01T05:15:07.771Z,5.53
2019-06-01T05:17:36.501Z,5.95
2019-06-01T05:20:06.182Z,5.67
2019-06-01T05:22:34.635Z,5.58
2019-06-01T05:25:02.398Z,5.40
2019-06-01T05:27:31.854Z,6.15
2019-06-01T05:29:59.519Z,5.30
2019-06-01T05:32:27.226Z,5.60
2019-06-01T05:34:55.006Z,5.53
2019-06-01T05:37:22.603Z,5.78
2019-06-01T05:39:50.341Z,5.30
2019-06-01T05:42:19.021Z,5.87
2019-06-01T05:44:46.794Z,5.60
2019-06-01T05:47:14.499Z,5.35
2019-06-01T05:49:42.253Z,5.75
2019-06-01T05:52:10.385Z,6.30
2019-06-01T05:54:38.220Z,4.85
2019-06-01T05:57:06.026Z,4.80
2019-06-01T05:59:33.799Z,4.95
2019-06-01T06:02:01.377Z,5.50
2019-06-01T06:04:29.275Z,5.15
2019-06-01T06:06:56.959Z,4.08
2019-06-01T06:09:24.680Z,5.30
2019-06-01T06:11:54.056Z,4.70
2019-06-01T06:14:22.651Z,4.70
2019-06-01T06:16:50.366Z,4.37
2019-06-01T06:19:21.110Z,4.83
2019-06-01T06:21:47.599Z,4.58
2019-06-01T06:24:16.409Z,4.42
2019-06-01T06:26:44.465Z,4.42
2019-06-01T06:29:12.763Z,4.05
2019-06-01T06:31:40.601Z,4.75
2019-06-01T06:34:08.358Z,5.10
2019-06-01T06:36:36.122Z,4.45
2019-06-01T06:39:06.803Z,4.45
2019-06-01T06:41:34.798Z,3.92
2019-06-01T06:44:02.482Z,4.03
2019-06-01T06:46:30.366Z,4.03
2019-06-01T06:48:58.071Z,4.00
2019-06-01T06:51:25.814Z,4.25
2019-06-01T06:53:53.497Z,4.00
2019-06-01T06:56:22.024Z,3.50
2019-06-01T06:58:50.037Z,4.00
2019-06-01T07:01:18.706Z,3.98
2019-06-01T07:03:46.480Z,2.85
2019-06-01T07:06:14.226Z,3.45
2019-06-01T07:08:41.927Z,3.00
2019-06-01T07:11:11.866Z,3.27
2019-06-01T07:13:39.457Z,2.95
2019-06-01T07:16:07.324Z,3.25
2019-06-01T07:18:35.109Z,3.42
2019-06-01T07:21:02.881Z,3.22
2019-06-01T07:23:30.571Z,3.37
2019-06-01T07:25:58.482Z,3.15
2019-06-01T07:28:26.362Z,3.30
2019-06-01T07:30:54.200Z,3.05
2019-06-01T07:33:22.392Z,2.65
2019-06-01T07:35:50.350Z,2.85
2019-06-01T07:38:18.128Z,3.25
2019-06-01T07:40:45.825Z,2.98
2019-06-01T07:43:13.551Z,3.20
2019-06-01T07:45:41.286Z,2.75
2019-06-01T07:48:08.948Z,2.62
2019-06-01T07:50:36.646Z,3.00
2019-06-01T07:53:04.401Z,2.65
2019-06-01T07:55:31.986Z,2.90
2019-06-01T07:58:00.621Z,2.65
2019-06-01T08:00:29.030Z,2.58
2019-06-01T08:02:57.090Z,2.45
2019-06-01T08:05:25.373Z,2.62
2019-06-01T08:07:54.374Z,2.67
2019-06-01T08:10:23.068Z,2.60
2019-06-01T08:12:51.969Z,2.50
2019-06-01T08:15:19.781Z,2.35
2019-06-01T08:17:47.637Z,2.70
2019-06-01T08:20:15.346Z,2.20
2019-06-01T08:22:43.199Z,2.22
2019-06-01T08:25:11.223Z,2.10
2019-06-01T08:27:39.191Z,2.67
2019-06-01T08:30:07.083Z,2.10
2019-06-01T08:32:35.386Z,2.40
2019-06-01T08:35:09.203Z,2.00
2019-06-01T08:37:33.678Z,2.00
2019-06-01T08:40:01.504Z,1.90
2019-06-01T08:42:31.614Z,2.00
2019-06-01T08:44:59.747Z,2.30
2019-06-01T08:47:27.784Z,2.00
2019-06-01T08:49:55.881Z,1.90
2019-06-01T08:52:23.908Z,2.00
2019-06-01T08:54:51.896Z,2.10
2019-06-01T08:57:19.885Z,1.73
2019-06-01T08:59:47.775Z,1.90
2019-06-01T09:02:15.552Z,2.00
2019-06-01T09:04:43.305Z,1.80
2019-06-01T09:07:11.007Z,1.90
2019-06-01T09:09:38.793Z,1.60
2019-06-01T09:12:06.603Z,2.00
2019-06-01T09:14:35.523Z,1.77
2019-06-01T09:17:03.644Z,1.80
2019-06-01T09:19:31.616Z,1.63
2019-06-01T09:21:59.549Z,1.90
2019-06-01T09:24:27.700Z,1.60
2019-06-01T09:26:55.518Z,1.57
2019-06-01T09:29:23.391Z,1.53
2019-06-01T09:31:51.064Z,1.73
2019-06-01T09:34:18.875Z,1.73
2019-06-01T09:36:46.686Z,1.70
2019-06-01T09:39:14.427Z,1.90
2019-06-01T09:41:42.325Z,1.67
2019-06-01T09:44:10.018Z,1.60
2019-06-01T09:46:37.825Z,1.70
2019-06-01T09:49:05.688Z,1.80
2019-06-01T09:51:33.568Z,1.90
2019-06-01T09:54:01.323Z,2.00
2019-06-01T09:56:31.720Z,1.60
2019-06-01T09:58:58.867Z,1.50
2019-06-01T10:01:28.004Z,1.90
2019-06-01T10:03:55.883Z,2.20
2019-06-01T10:06:23.792Z,1.70
2019-06-01T10:08:51.512Z,1.80
2019-06-01T10:11:19.534Z,2.00
2019-06-01T10:13:47.355Z,1.77
2019-06-01T10:16:15.244Z,1.63
2019-06-01T10:18:43.185Z,1.60
2019-06-01T10:21:11.072Z,1.80
2019-06-01T10:23:38.831Z,1.93
2019-06-01T10:26:06.553Z,2.03
2019-06-01T10:28:35.732Z,1.90
2019-06-01T10:31:03.698Z,1.93
2019-06-01T10:33:32.599Z,2.20
2019-06-01T10:36:18.610Z,2.40
2019-06-01T10:38:31.157Z,1.70
2019-06-01T10:40:58.974Z,1.60
2019-06-01T10:43:26.723Z,1.80
2019-06-01T10:45:54.430Z,2.03
2019-06-01T10:48:22.327Z,2.03
2019-06-01T10:50:50.086Z,2.10
2019-06-01T10:53:17.872Z,2.03
2019-06-01T10:55:45.755Z,2.00
2019-06-01T10:58:13.648Z,1.93
2019-06-01T11:00:48.706Z,1.90
2019-06-01T11:03:10.966Z,1.83
2019-06-01T11:05:38.853Z,1.80
2019-06-01T11:08:06.643Z,1.73
2019-06-01T11:10:34.827Z,1.60
2019-06-01T11:13:02.983Z,1.70
2019-06-01T11:15:30.715Z,2.20
2019-06-01T11:17:58.569Z,2.17
2019-06-01T11:20:26.249Z,2.00
2019-06-01T11:22:54.034Z,1.80
2019-06-01T11:25:24.660Z,2.30
2019-06-01T11:27:52.526Z,1.67
2019-06-01T11:30:20.333Z,1.60
2019-06-01T11:32:49.756Z,1.90
2019-06-01T11:35:17.552Z,1.90
2019-06-01T11:37:45.463Z,1.87
2019-06-01T11:40:13.267Z,1.83
2019-06-01T11:42:43.114Z,1.73
2019-06-01T11:45:11.036Z,1.67
2019-06-01T11:47:39.126Z,1.93
2019-06-01T11:50:08.363Z,1.63
2019-06-01T11:52:37.064Z,1.87
2019-06-01T11:55:06.052Z,1.87
2019-06-01T11:57:35.275Z,1.90
2019-06-01T12:00:04.662Z,1.70
2019-06-01T12:02:35.408Z,1.77
2019-06-01T12:05:04.345Z,1.80
2019-06-01T12:07:33.550Z,1.60
2019-06-01T12:10:01.339Z,1.60
2019-06-01T12:12:30.655Z,2.00
2019-06-01T12:14:58.363Z,1.80
2019-06-01T12:17:25.993Z,2.93
2019-06-01T12:19:53.828Z,3.70
2019-06-01T12:22:21.626Z,2.70
2019-06-01T12:24:49.541Z,1.60
2019-06-01T12:27:17.361Z,1.70
2019-06-01T12:29:45.820Z,1.70
2019-06-01T12:32:13.802Z,1.70
2019-06-01T12:34:41.969Z,1.90
2019-06-01T12:37:09.842Z,1.60
2019-06-01T12:39:38.304Z,1.80
2019-06-01T12:42:06.265Z,1.57
2019-06-01T12:44:34.128Z,1.80
2019-06-01T12:47:01.932Z,1.70
2019-06-01T12:49:30.025Z,1.70
2019-06-01T12:51:57.837Z,1.63
2019-06-01T12:54:25.683Z,1.80
2019-06-01T12:56:53.756Z,1.50
2019-06-01T12:59:21.439Z,1.87
2019-06-01T13:01:49.340Z,2.17
2019-06-01T13:04:17.151Z,2.00
2019-06-01T13:06:48.382Z,1.87
2019-06-01T13:09:14.637Z,1.73
2019-06-01T13:11:43.248Z,1.70
2019-06-01T13:14:11.151Z,1.67
2019-06-01T13:16:38.990Z,1.80
2019-06-01T13:19:06.752Z,1.67
2019-06-01T13:21:34.518Z,1.57
2019-06-01T13:24:02.416Z,1.50
2019-06-01T13:26:30.286Z,1.60
2019-06-01T13:28:58.013Z,1.67
2019-06-01T13:31:25.879Z,1.27
2019-06-01T13:33:53.780Z,1.57
2019-06-01T13:36:21.548Z,1.53
2019-06-01T13:38:50.806Z,1.50
2019-06-01T13:41:18.574Z,1.40
2019-06-01T13:43:47.242Z,1.37
2019-06-01T13:46:15.191Z,1.53
2019-06-01T13:48:43.583Z,1.53
2019-06-01T13:51:11.525Z,1.63
2019-06-01T13:53:39.332Z,1.50
2019-06-01T13:56:07.119Z,1.60
2019-06-01T13:58:34.938Z,1.60
2019-06-01T14:01:02.659Z,1.60
2019-06-01T14:03:30.519Z,1.40
2019-06-01T14:06:00.950Z,1.60
2019-06-01T14:08:29.345Z,1.43
2019-06-01T14:10:57.345Z,1.57
2019-06-01T14:13:25.146Z,1.60
2019-06-01T14:15:53.593Z,1.50
2019-06-01T14:18:21.658Z,1.50
2019-06-01T14:20:49.668Z,1.60
2019-06-01T14:23:17.712Z,1.63
2019-06-01T14:25:45.926Z,1.60
2019-06-01T14:28:13.823Z,1.50
2019-06-01T14:30:41.531Z,1.20
2019-06-01T14:33:09.310Z,2.23
2019-06-01T14:35:37.103Z,1.70
2019-06-01T14:38:04.796Z,1.30
2019-06-01T14:40:32.677Z,1.70
2019-06-01T14:43:00.381Z,1.47
2019-06-01T14:45:28.438Z,1.80
2019-06-01T14:47:56.114Z,1.47
2019-06-01T14:50:23.915Z,1.30
2019-06-01T14:52:51.650Z,1.37
2019-06-01T14:55:19.388Z,1.50
2019-06-01T14:57:50.059Z,1.47
2019-06-01T15:00:18.536Z,1.70
2019-06-01T15:02:48.110Z,1.50
2019-06-01T15:05:16.163Z,1.30
2019-06-01T15:07:44.067Z,1.53
2019-06-01T15:10:14.439Z,1.40
2019-06-01T15:12:42.293Z,1.40
2019-06-01T15:15:10.330Z,1.40
2019-06-01T15:17:38.934Z,1.73
2019-06-01T15:20:06.819Z,1.60
2019-06-01T15:22:35.026Z,1.60
2019-06-01T15:25:03.735Z,1.43
2019-06-01T15:27:32.511Z,1.77
2019-06-01T15:30:00.357Z,1.50
2019-06-01T15:32:29.442Z,1.60
2019-06-01T15:34:57.224Z,1.83
2019-06-01T15:37:24.928Z,2.20
2019-06-01T15:39:52.922Z,1.60
2019-06-01T15:42:20.618Z,1.50
2019-06-01T15:44:48.380Z,1.57
2019-06-01T15:47:16.164Z,1.50
2019-06-01T15:49:43.866Z,1.57
2019-06-01T15:52:11.821Z,1.73
2019-06-01T15:54:39.572Z,1.50
2019-06-01T15:57:07.392Z,1.40
2019-06-01T15:59:35.162Z,1.80
2019-06-01T16:02:03.395Z,2.50
2019-06-01T16:04:31.442Z,1.47
2019-06-01T16:06:59.343Z,1.93
2019-06-01T16:09:41.530Z,1.97
2019-06-01T16:11:57.486Z,1.60
2019-06-01T16:14:25.493Z,1.57
2019-06-01T16:16:56.194Z,1.60
2019-06-01T16:19:23.984Z,1.50
2019-06-01T16:21:51.781Z,1.67
2019-06-01T16:24:19.538Z,1.90
2019-06-01T16:26:47.541Z,1.50
2019-06-01T16:29:15.278Z,1.60
2019-06-01T16:31:43.057Z,1.80
2019-06-01T16:34:10.842Z,1.70
2019-06-01T16:36:38.696Z,2.10
2019-06-01T16:39:08.092Z,1.70
2019-06-01T16:41:36.363Z,1.60
2019-06-01T16:44:05.772Z,1.40
2019-06-01T16:46:33.713Z,1.70
2019-06-01T16:49:01.631Z,1.70
2019-06-01T16:51:56.569Z,1.90
2019-06-01T16:54:25.722Z,3.90
2019-06-01T16:56:53.489Z,5.40
2019-06-01T16:59:21.486Z,5.03
2019-06-01T17:01:49.289Z,1.87
2019-06-01T17:04:17.858Z,2.03
2019-06-01T17:06:46.343Z,1.57
2019-06-01T17:09:14.633Z,1.73
2019-06-01T17:11:42.590Z,1.97
2019-06-01T17:14:10.569Z,2.20
2019-06-01T17:16:38.463Z,1.50
2019-06-01T17:19:07.251Z,1.73
2019-06-01T17:21:34.980Z,1.50
2019-06-01T17:24:03.812Z,1.87
2019-06-01T17:26:31.756Z,1.90
2019-06-01T17:29:00.021Z,1.90
2019-06-01T17:31:28.305Z,2.13
2019-06-01T17:33:56.058Z,2.30
2019-06-01T17:36:23.758Z,2.63
2019-06-01T17:38:51.758Z,1.90
2019-06-01T17:41:19.467Z,1.90
2019-06-01T17:43:47.259Z,2.27
2019-06-01T17:46:14.974Z,1.80
2019-06-01T17:48:43.142Z,2.00
2019-06-01T17:51:10.810Z,2.00
2019-06-01T17:53:38.696Z,2.37
2019-06-01T17:56:06.462Z,2.60
2019-06-01T17:58:34.376Z,2.40
2019-06-01T18:01:04.082Z,2.10
2019-06-01T18:03:31.923Z,2.27
2019-06-01T18:05:59.782Z,2.20
2019-06-01T18:08:27.638Z,3.30
2019-06-01T18:10:55.436Z,2.70
2019-06-01T18:13:23.291Z,2.80
2019-06-01T18:15:51.306Z,2.87
2019-06-01T18:18:19.088Z,2.50
2019-06-01T18:20:46.931Z,2.17
2019-06-01T18:23:14.753Z,2.33
2019-06-01T18:25:42.650Z,2.10
2019-06-01T18:28:16.144Z,2.30
2019-06-01T18:30:40.141Z,2.10
2019-06-01T18:33:09.019Z,2.37
2019-06-01T18:35:37.072Z,2.40
2019-06-01T18:38:05.703Z,2.30
2019-06-01T18:40:33.913Z,2.47
2019-06-01T18:43:06.054Z,2.60
2019-06-01T18:45:35.958Z,2.43
2019-06-01T18:48:05.957Z,2.30
2019-06-01T18:50:34.699Z,2.60
2019-06-01T18:53:03.880Z,2.60
2019-06-01T18:55:35.266Z,2.50
2019-06-01T18:58:01.776Z,2.60
2019-06-01T19:00:30.216Z,2.90
2019-06-01T19:02:58.191Z,2.60
2019-06-01T19:05:26.068Z,2.60
2019-06-01T19:07:53.943Z,2.50
2019-06-01T19:10:22.086Z,2.57
2019-06-01T19:12:50.016Z,2.60
2019-06-01T19:15:27.835Z,2.63
2019-06-01T19:17:47.867Z,2.27
2019-06-01T19:20:17.038Z,2.50
2019-06-01T19:22:44.988Z,3.00
2019-06-01T19:25:14.892Z,3.30
2019-06-01T19:27:43.496Z,3.77
2019-06-01T19:30:12.841Z,3.67
2019-06-01T19:32:42.659Z,3.03
2019-06-01T19:35:11.538Z,3.40
2019-06-01T19:37:40.129Z,4.37
2019-06-01T19:40:09.386Z,6.20
2019-06-01T19:42:37.730Z,3.83
2019-06-01T19:45:05.678Z,3.10
2019-06-01T19:47:34.307Z,5.30
2019-06-01T19:50:02.073Z,5.20
2019-06-01T19:52:31.578Z,4.97
2019-06-01T19:54:59.325Z,4.70
2019-06-01T19:57:27.216Z,5.87
2019-06-01T19:59:57.813Z,3.97
2019-06-01T20:02:33.706Z,3.40
2019-06-01T20:04:55.333Z,3.50
2019-06-01T20:07:23.175Z,3.30
2019-06-01T20:09:51.099Z,3.53
2019-06-01T20:12:20.467Z,3.90
2019-06-01T20:14:48.497Z,4.37
2019-06-01T20:17:17.682Z,5.20
2019-06-01T20:19:45.882Z,5.30
2019-06-01T20:22:14.698Z,5.50
2019-06-01T20:24:42.926Z,5.03
2019-06-01T20:27:11.316Z,4.00
2019-06-01T20:29:39.188Z,3.63
2019-06-01T20:32:06.962Z,4.27
2019-06-01T20:34:34.747Z,3.40
2019-06-01T20:37:02.493Z,3.30
2019-06-01T20:39:30.572Z,3.43
2019-06-01T20:41:58.254Z,3.73
2019-06-01T20:44:26.052Z,3.53
2019-06-01T20:46:54.626Z,3.83
2019-06-01T20:49:22.728Z,3.27
2019-06-01T20:51:50.682Z,3.77
2019-06-01T20:54:19.089Z,3.70
2019-06-01T20:56:47.099Z,3.93
2019-06-01T20:59:17.344Z,3.60
2019-06-01T21:01:44.546Z,3.90
2019-06-01T21:04:13.974Z,3.90
2019-06-01T21:07:00.186Z,4.03
2019-06-01T21:09:28.317Z,4.47
2019-06-01T21:11:56.067Z,4.00
2019-06-01T21:14:23.879Z,4.30
2019-06-01T21:16:51.762Z,3.97
2019-06-01T21:19:20.418Z,3.97
2019-06-01T21:21:48.504Z,3.87
2019-06-01T21:24:16.859Z,3.63
2019-06-01T21:26:44.966Z,3.97
2019-06-01T21:29:12.758Z,3.47
2019-06-01T21:32:02.001Z,5.43
2019-06-01T21:34:29.930Z,4.23
2019-06-01T21:36:57.767Z,4.75
2019-06-01T21:39:25.593Z,5.25
2019-06-01T21:41:53.377Z,4.80
2019-06-01T21:44:21.635Z,4.33
2019-06-01T21:46:49.638Z,4.73
2019-06-01T21:49:17.719Z,4.00
2019-06-01T21:51:45.694Z,4.50
2019-06-01T21:54:13.409Z,4.27
2019-06-01T21:56:41.311Z,4.92
2019-06-01T21:59:09.423Z,4.92
2019-06-01T22:01:37.178Z,5.42
2019-06-01T22:04:05.051Z,6.17
2019-06-01T22:09:06.809Z,6.80
2019-06-01T22:11:34.528Z,7.08
2019-06-01T22:14:02.319Z,6.05
2019-06-01T22:16:30.349Z,6.20
2019-06-01T22:18:58.531Z,6.50
2019-06-01T22:21:27.837Z,5.92
2019-06-01T22:24:05.113Z,5.75
2019-06-01T22:26:32.795Z,4.85
2019-06-01T22:29:00.609Z,5.00
2019-06-01T22:31:28.727Z,5.00
2019-06-01T22:33:56.626Z,5.45
2019-06-01T22:36:25.161Z,5.12
2019-06-01T22:38:53.138Z,4.92
2019-06-01T22:41:21.877Z,5.10
2019-06-01T22:43:49.979Z,5.45
2019-06-01T22:46:17.638Z,4.97
2019-06-01T22:48:45.507Z,5.20
2019-06-01T22:51:13.206Z,5.37
2019-06-01T22:53:41.041Z,5.50
2019-06-01T22:56:08.809Z,5.05
2019-06-01T22:58:36.671Z,5.83
2019-06-01T23:01:04.406Z,5.55
2019-06-01T23:03:32.220Z,5.55
2019-06-01T23:06:00.075Z,5.95
2019-06-01T23:08:29.366Z,5.53
2019-06-01T23:10:57.292Z,6.78
2019-06-01T23:13:26.206Z,6.72
2019-06-01T23:16:06.234Z,6.80
2019-06-01T23:18:34.016Z,6.58
2019-06-01T23:21:01.744Z,6.80
2019-06-01T23:23:30.213Z,6.35
2019-06-01T23:25:59.489Z,6.75
2019-06-01T23:28:28.543Z,6.85
2019-06-01T23:31:02.441Z,7.00
2019-06-01T23:33:30.990Z,7.50
2019-06-01T23:35:58.986Z,7.45
2019-06-01T23:38:26.728Z,6.70
2019-06-01T23:41:06.912Z,7.03
2019-06-01T23:43:34.639Z,6.65
2019-06-01T23:46:02.664Z,6.78
2019-06-01T23:48:31.305Z,7.15
2019-06-01T23:50:59.261Z,7.50
2019-06-01T23:53:27.485Z,6.50
2019-06-01T23:55:55.426Z,6.97
2019-06-01T23:58:24.006Z,7.28
